createdAt,value
2019-01-10T00:01:44.439Z,102197.41
2019-01-10T00:04:14.119Z,102189.53
2019-01-10T00:06:43.925Z,102197.80
2019-01-10T00:09:13.645Z,102195.06
2019-01-10T00:11:43.382Z,102202.19
2019-01-10T00:14:13.136Z,102196.63
2019-01-10T00:16:42.828Z,102199.64
2019-01-10T00:19:12.586Z,102204.60
2019-01-10T00:21:42.331Z,102201.25
2019-01-10T00:24:12.388Z,102207.99
2019-01-10T00:26:42.178Z,102197.35
2019-01-10T00:29:11.895Z,102195.41
2019-01-10T00:31:41.727Z,102201.88
2019-01-10T00:34:11.435Z,102188.41
2019-01-10T00:36:41.081Z,102194.42
2019-01-10T00:39:10.931Z,102202.30
2019-01-10T00:41:40.691Z,102210.68
2019-01-10T00:44:10.421Z,102210.98
2019-01-10T00:46:40.238Z,102199.29
2019-01-10T00:49:10.079Z,102204.48
2019-01-10T00:51:41.537Z,102204.97
2019-01-10T00:54:11.291Z,102206.87
2019-01-10T00:56:41.104Z,102198.80
2019-01-10T00:59:10.774Z,102216.99
2019-01-10T01:01:40.823Z,102210.53
2019-01-10T01:04:10.617Z,102221.80
2019-01-10T01:06:40.479Z,102220.99
2019-01-10T01:09:10.437Z,102220.70
2019-01-10T01:11:43.048Z,102221.68
2019-01-10T01:14:12.742Z,102218.42
2019-01-10T01:16:42.613Z,102230.58
2019-01-10T01:19:12.535Z,102225.91
2019-01-10T01:21:42.345Z,102230.96
2019-01-10T01:24:14.121Z,102223.77
2019-01-10T01:26:43.600Z,102227.13
2019-01-10T01:29:13.459Z,102230.09
2019-01-10T01:31:43.238Z,102230.09
2019-01-10T01:34:13.016Z,102237.88
2019-01-10T01:36:42.775Z,102241.72
2019-01-10T01:39:12.540Z,102246.92
2019-01-10T01:41:42.177Z,102237.97
2019-01-10T01:44:11.961Z,102247.22
2019-01-10T01:46:41.751Z,102251.59
2019-01-10T01:49:11.492Z,102246.09
2019-01-10T01:51:41.273Z,102258.60
2019-01-10T01:54:11.175Z,102261.77
2019-01-10T01:56:40.911Z,102260.30
2019-01-10T01:59:10.791Z,102262.53
2019-01-10T02:01:40.474Z,102264.92
2019-01-10T02:04:10.437Z,102262.34
2019-01-10T02:06:40.151Z,102260.83
2019-01-10T02:09:09.875Z,102265.69
2019-01-10T02:11:41.091Z,102265.50
2019-01-10T02:14:10.894Z,102274.55
2019-01-10T02:16:40.749Z,102274.98
2019-01-10T02:19:13.107Z,102279.23
2019-01-10T02:21:42.853Z,102277.28
2019-01-10T02:24:12.669Z,102275.42
2019-01-10T02:26:42.405Z,102279.91
2019-01-10T02:29:12.099Z,102285.11
2019-01-10T02:31:41.912Z,102276.22
2019-01-10T02:34:11.730Z,102277.91
2019-01-10T02:36:41.412Z,102283.16
2019-01-10T02:39:11.299Z,102286.61
2019-01-10T02:41:41.034Z,102290.17
2019-01-10T02:44:10.884Z,102287.93
2019-01-10T02:46:40.570Z,102298.05
2019-01-10T02:49:10.252Z,102300.00
2019-01-10T02:51:41.747Z,102303.69
2019-01-10T02:54:11.477Z,102310.45
2019-01-10T02:56:41.147Z,102315.27
2019-01-10T02:59:11.008Z,102311.13
2019-01-10T03:01:40.708Z,102316.88
2019-01-10T03:04:10.794Z,102305.63
2019-01-10T03:06:40.633Z,102310.88
2019-01-10T03:09:11.045Z,102301.39
2019-01-10T03:11:40.833Z,102303.55
2019-01-10T03:14:10.729Z,102296.00
2019-01-10T03:16:40.433Z,102301.69
2019-01-10T03:19:10.238Z,102302.62
2019-01-10T03:21:41.599Z,102305.20
2019-01-10T03:24:11.380Z,102302.86
2019-01-10T03:26:41.091Z,102303.64
2019-01-10T03:29:11.631Z,102295.92
2019-01-10T03:31:41.746Z,102294.11
2019-01-10T03:34:11.415Z,102301.17
2019-01-10T03:36:41.252Z,102301.02
2019-01-10T03:39:11.068Z,102295.38
2019-01-10T03:41:40.891Z,102296.44
2019-01-10T03:44:10.613Z,102302.86
2019-01-10T03:46:40.369Z,102293.56
2019-01-10T03:49:10.023Z,102304.81
2019-01-10T03:51:41.421Z,102311.08
2019-01-10T03:54:11.087Z,102298.33
2019-01-10T03:56:40.912Z,102304.45
2019-01-10T03:59:10.691Z,102306.25
2019-01-10T04:01:40.328Z,102302.61
2019-01-10T04:04:10.070Z,102308.89
2019-01-10T04:06:39.850Z,102313.45
2019-01-10T04:09:09.950Z,102307.76
2019-01-10T04:11:40.927Z,102303.19
2019-01-10T04:14:10.672Z,102311.74
2019-01-10T04:16:40.439Z,102311.39
2019-01-10T04:19:10.092Z,102314.81
2019-01-10T04:21:41.394Z,102319.70
2019-01-10T04:24:11.089Z,102323.83
2019-01-10T04:26:40.793Z,102320.12
2019-01-10T04:29:10.466Z,102324.31
2019-01-10T04:31:40.361Z,102320.82
2019-01-10T04:34:10.128Z,102321.36
2019-01-10T05:44:11.568Z,102322.30
2019-01-10T05:46:48.460Z,102317.13
2019-01-10T05:49:12.733Z,102319.88
2019-01-10T05:51:44.019Z,102326.86
2019-01-10T05:54:13.779Z,102326.95
2019-01-10T05:56:43.578Z,102329.23
2019-01-10T05:59:13.371Z,102330.44
2019-01-10T06:01:43.200Z,102331.52
2019-01-10T06:04:12.999Z,102334.45
2019-01-10T06:06:42.765Z,102336.95
2019-01-10T06:09:12.526Z,102349.08
2019-01-10T06:11:42.307Z,102353.13
2019-01-10T06:14:12.048Z,102359.34
2019-01-10T06:16:41.952Z,102359.43
2019-01-10T06:19:11.699Z,102357.25
2019-01-10T06:21:41.437Z,102371.77
2019-01-10T06:24:11.104Z,102360.25
2019-01-10T06:26:40.771Z,102373.20
2019-01-10T06:29:10.547Z,102376.50
2019-01-10T06:31:41.847Z,102374.47
2019-01-10T06:34:11.632Z,102376.08
2019-01-10T06:36:41.290Z,102376.01
2019-01-10T06:39:11.049Z,102384.12
2019-01-10T06:41:40.732Z,102381.48
2019-01-10T06:44:10.481Z,102393.00
2019-01-10T06:46:40.230Z,102383.95
2019-01-10T06:49:10.011Z,102392.59
2019-01-10T06:51:39.759Z,102389.09
2019-01-10T06:54:09.471Z,102387.55
2019-01-10T06:56:39.233Z,102386.16
2019-01-10T06:59:08.983Z,102389.05
2019-01-10T07:01:40.086Z,102393.62
2019-01-10T07:04:09.778Z,102397.87
2019-01-10T07:06:39.874Z,102392.70
2019-01-10T07:09:10.029Z,102397.23
2019-01-10T07:11:39.783Z,102398.66
2019-01-10T07:14:09.461Z,102409.73
2019-01-10T07:16:39.170Z,102402.93
2019-01-10T07:19:08.837Z,102409.13
2019-01-10T07:21:41.128Z,102402.74
2019-01-10T07:24:10.860Z,102412.64
2019-01-10T07:27:19.287Z,102412.87
2019-01-10T07:29:54.528Z,102417.05
2019-01-10T07:32:24.591Z,102423.00
2019-01-10T07:38:12.985Z,102422.93
2019-01-10T07:40:42.711Z,102411.11
2019-01-10T07:43:12.391Z,102415.64
2019-01-10T07:45:42.042Z,102415.80
2019-01-10T07:48:11.825Z,102419.58
2019-01-10T07:50:41.639Z,102418.61
2019-01-10T07:53:11.660Z,102421.01
2019-01-10T07:55:41.487Z,102430.20
2019-01-10T07:58:11.157Z,102426.86
2019-01-10T08:00:40.928Z,102424.30
2019-01-10T08:03:10.731Z,102424.74
2019-01-10T08:05:40.714Z,102418.08
2019-01-10T08:08:11.425Z,102425.06
2019-01-10T08:10:41.262Z,102436.08
2019-01-10T08:13:11.279Z,102437.77
2019-01-10T08:15:41.022Z,102434.83
2019-01-10T08:18:10.864Z,102443.87
2019-01-10T08:20:40.603Z,102444.98
2019-01-10T08:23:10.313Z,102456.80
2019-01-10T08:25:40.350Z,102459.17
2019-01-10T08:28:10.165Z,102463.55
2019-01-10T08:30:39.899Z,102465.06
2019-01-10T08:33:09.638Z,102460.22
2019-01-10T08:35:39.322Z,102469.64
2019-01-10T08:38:09.046Z,102469.64
2019-01-10T08:40:38.857Z,102455.16
2019-01-10T08:43:08.641Z,102465.17
2019-01-10T08:45:38.332Z,102473.87
2019-01-10T08:48:09.126Z,102472.48
2019-01-10T08:50:38.845Z,102473.87
2019-01-10T08:53:08.562Z,102474.55
2019-01-10T08:55:38.289Z,102475.45
2019-01-10T08:58:08.106Z,102472.03
2019-01-10T09:00:37.838Z,102481.30
2019-01-10T09:03:07.576Z,102478.17
2019-01-10T09:05:37.239Z,102485.61
2019-01-10T09:08:06.995Z,102481.07
2019-01-10T09:10:36.712Z,102479.23
2019-01-10T09:13:06.817Z,102478.34
2019-01-10T09:15:36.596Z,102495.89
2019-01-10T09:18:06.965Z,102495.52
2019-01-10T09:20:36.699Z,102496.27
2019-01-10T09:23:06.534Z,102495.33
2019-01-10T09:25:36.287Z,102495.05
2019-01-10T09:28:06.168Z,102498.12
2019-01-10T09:30:35.941Z,102496.84
2019-01-10T09:33:05.666Z,102500.14
2019-01-10T09:35:35.418Z,102507.95
2019-01-10T09:38:05.299Z,102505.47
2019-01-10T09:40:35.088Z,102507.95
2019-01-10T09:43:04.867Z,102512.00
2019-01-10T09:45:42.824Z,102514.44
2019-01-10T09:48:06.412Z,102510.86
2019-01-10T09:50:36.163Z,102517.44
2019-01-10T09:53:06.385Z,102519.00
2019-01-10T09:55:36.122Z,102523.14
2019-01-10T09:58:06.071Z,102519.88
2019-01-10T10:00:35.945Z,102513.21
2019-01-10T10:03:07.258Z,102511.88
2019-01-10T10:05:37.049Z,102523.36
2019-01-10T10:08:06.903Z,102526.48
2019-01-10T10:10:36.678Z,102523.02
2019-01-10T10:13:06.557Z,102519.66
2019-01-10T10:15:36.260Z,102530.75
2019-01-10T10:18:06.038Z,102525.28
2019-01-10T10:20:35.742Z,102516.17
2019-01-10T10:23:05.534Z,102519.02
2019-01-10T10:25:35.189Z,102520.14
2019-01-10T10:28:05.143Z,102518.73
2019-01-10T10:30:35.008Z,102525.16
2019-01-10T10:33:04.750Z,102517.03
2019-01-10T10:35:34.536Z,102518.67
2019-01-10T10:38:04.652Z,102506.80
2019-01-10T10:40:34.406Z,102507.81
2019-01-10T10:43:04.211Z,102505.57
2019-01-10T10:45:34.036Z,102515.52
2019-01-10T10:48:03.757Z,102525.16
2019-01-10T10:50:33.564Z,102512.02
2019-01-10T10:53:05.227Z,102520.39
2019-01-10T10:55:35.049Z,102517.77
2019-01-10T10:58:05.531Z,102525.41
2019-01-10T11:00:35.171Z,102517.46
2019-01-10T11:03:05.157Z,102521.41
2019-01-10T11:05:34.799Z,102527.36
2019-01-10T11:08:06.019Z,102518.00
2019-01-10T11:10:35.871Z,102514.69
2019-01-10T11:13:05.783Z,102525.22
2019-01-10T11:15:35.535Z,102519.89
2019-01-10T11:18:05.625Z,102521.36
2019-01-10T11:20:35.262Z,102519.49
2019-01-10T11:23:10.472Z,102512.13
2019-01-10T11:25:37.039Z,102508.77
2019-01-10T11:28:07.032Z,102503.84
2019-01-10T11:30:36.785Z,102508.40
2019-01-10T11:33:06.717Z,102511.20
2019-01-10T11:35:36.389Z,102508.04
2019-01-10T11:38:06.521Z,102503.94
2019-01-10T11:40:36.339Z,102500.46
2019-01-10T11:43:06.295Z,102504.72
2019-01-10T11:45:36.242Z,102502.17
2019-01-10T11:48:06.549Z,102492.13
2019-01-10T11:50:36.219Z,102498.84
2019-01-10T11:53:06.005Z,102493.02
2019-01-10T11:55:35.799Z,102493.38
2019-01-10T11:58:05.751Z,102497.60
2019-01-10T12:00:35.820Z,102485.84
2019-01-10T12:03:05.832Z,102496.86
2019-01-10T12:05:35.671Z,102489.56
2019-01-10T12:08:05.588Z,102492.37
2019-01-10T12:10:35.469Z,102484.23
2019-01-10T12:13:05.557Z,102489.27
2019-01-10T12:15:35.327Z,102484.63
2019-01-10T12:18:07.617Z,102481.83
2019-01-10T12:20:37.365Z,102476.27
2019-01-10T12:23:07.131Z,102480.45
2019-01-10T12:25:36.802Z,102488.71
2019-01-10T12:28:06.689Z,102483.12
2019-01-10T12:30:36.568Z,102474.89
2019-01-10T12:33:06.656Z,102468.06
2019-01-10T12:35:36.433Z,102464.14
2019-01-10T12:38:06.603Z,102464.20
2019-01-10T12:40:36.255Z,102455.66
2019-01-10T12:43:06.143Z,102457.66
2019-01-10T12:45:35.928Z,102467.34
2019-01-10T12:48:05.706Z,102460.27
2019-01-10T12:50:35.903Z,102457.27
2019-01-10T12:53:05.708Z,102457.27
2019-01-10T12:55:35.528Z,102454.22
2019-01-10T12:58:05.410Z,102458.59
2019-01-10T13:00:35.300Z,102460.96
2019-01-10T13:03:05.345Z,102457.90
2019-01-10T13:05:35.291Z,102456.98
2019-01-10T13:08:05.241Z,102458.82
2019-01-10T13:10:35.039Z,102466.55
2019-01-10T13:13:05.090Z,102458.88
2019-01-10T13:15:34.879Z,102455.95
2019-01-10T13:18:04.763Z,102465.09
2019-01-10T13:20:34.522Z,102458.98
2019-01-10T13:23:04.282Z,102466.02
2019-01-10T13:25:34.014Z,102462.83
2019-01-10T13:28:03.832Z,102460.48
2019-01-10T13:30:33.602Z,102457.52
2019-01-10T13:33:03.392Z,102463.41
2019-01-10T13:35:33.053Z,102464.25
2019-01-10T13:38:02.913Z,102455.41
2019-01-10T13:40:32.640Z,102456.89
2019-01-10T13:43:02.436Z,102459.66
2019-01-10T13:45:32.351Z,102460.02
2019-01-10T13:48:02.165Z,102464.55
2019-01-10T13:50:32.084Z,102458.38
2019-01-10T13:53:02.419Z,102459.30
2019-01-10T13:55:32.191Z,102467.16
2019-01-10T13:58:02.296Z,102467.30
2019-01-10T14:00:35.572Z,102472.30
2019-01-10T14:03:04.669Z,102469.23
2019-01-10T14:05:34.471Z,102471.33
2019-01-10T14:08:04.629Z,102470.71
2019-01-10T14:10:34.410Z,102471.91
2019-01-10T14:13:04.193Z,102470.34
2019-01-10T14:15:34.416Z,102461.41
2019-01-10T14:18:04.464Z,102465.14
2019-01-10T14:20:34.380Z,102462.03
2019-01-10T14:23:04.595Z,102473.20
2019-01-10T14:25:34.371Z,102476.41
2019-01-10T14:28:04.285Z,102475.28
2019-01-10T14:30:36.531Z,102474.73
2019-01-10T14:33:08.310Z,102478.07
2019-01-10T14:35:38.121Z,102470.94
2019-01-10T14:38:08.088Z,102471.33
2019-01-10T14:40:38.147Z,102469.80
2019-01-10T14:43:07.962Z,102470.39
2019-01-10T14:45:37.957Z,102473.87
2019-01-10T14:48:07.911Z,102468.50
2019-01-10T14:50:37.755Z,102473.65
2019-01-10T14:53:07.743Z,102465.59
2019-01-10T14:55:37.586Z,102466.23
2019-01-10T14:58:07.850Z,102467.08
2019-01-10T15:00:37.898Z,102470.66
2019-01-10T15:03:07.545Z,102464.77
2019-01-10T15:05:37.695Z,102468.92
2019-01-10T15:08:07.617Z,102468.23
2019-01-10T15:10:37.360Z,102471.26
2019-01-10T15:13:07.253Z,102470.37
2019-01-10T15:15:37.215Z,102462.66
2019-01-10T15:18:06.951Z,102468.95
2019-01-10T15:20:36.856Z,102464.56
2019-01-10T15:23:06.662Z,102465.16
2019-01-10T15:25:36.361Z,102461.52
2019-01-10T15:28:06.155Z,102458.09
2019-01-10T15:30:36.347Z,102458.18
2019-01-10T15:33:06.131Z,102461.12
2019-01-10T15:35:35.931Z,102453.98
2019-01-10T15:38:05.822Z,102452.81
2019-01-10T15:40:35.950Z,102457.22
2019-01-10T15:43:06.128Z,102460.89
2019-01-10T15:45:35.931Z,102454.68
2019-01-10T15:48:06.607Z,102460.02
2019-01-10T15:50:36.252Z,102460.59
2019-01-10T15:53:06.326Z,102474.39
2019-01-10T15:55:36.169Z,102467.11
2019-01-10T15:58:05.978Z,102467.60
2019-01-10T16:00:35.641Z,102471.33
2019-01-10T16:03:05.582Z,102475.18
2019-01-10T16:05:35.410Z,102469.39
2019-01-10T16:08:05.451Z,102473.53
2019-01-10T16:10:35.155Z,102467.05
2019-01-10T16:15:40.658Z,102470.77
2019-01-10T16:18:10.438Z,102470.77
2019-01-10T16:20:40.234Z,102465.87
2019-01-10T16:23:10.379Z,102469.45
2019-01-10T16:25:40.025Z,102464.55
2019-01-10T16:28:10.109Z,102470.44
2019-01-10T16:30:39.852Z,102474.39
2019-01-10T16:33:09.515Z,102471.50
2019-01-10T16:35:39.518Z,102458.20
2019-01-10T16:38:09.293Z,102461.95
2019-01-10T16:40:38.955Z,102470.05
2019-01-10T16:43:11.901Z,102467.19
2019-01-10T16:45:40.254Z,102474.72
2019-01-10T16:48:10.065Z,102476.41
2019-01-10T16:50:39.871Z,102468.83
2019-01-10T16:53:09.556Z,102461.92
2019-01-10T16:55:39.391Z,102470.58
2019-01-10T16:58:09.107Z,102458.59
2019-01-10T17:00:38.801Z,102464.55
2019-01-10T17:03:08.530Z,102463.14
2019-01-10T17:05:38.409Z,102471.27
2019-01-10T17:08:08.249Z,102474.39
2019-01-10T17:10:38.055Z,102465.80
2019-01-10T17:13:07.874Z,102467.74
2019-01-10T17:15:37.662Z,102466.09
2019-01-10T17:18:07.464Z,102463.86
2019-01-10T17:20:37.164Z,102465.11
2019-01-10T17:23:06.982Z,102466.66
2019-01-10T17:25:37.617Z,102467.05
2019-01-10T17:28:07.535Z,102463.39
2019-01-10T17:30:37.541Z,102471.30
2019-01-10T17:33:07.362Z,102477.59
2019-01-10T17:35:37.162Z,102477.06
2019-01-10T17:38:07.311Z,102480.81
2019-01-10T17:40:37.129Z,102477.06
2019-01-10T17:43:06.979Z,102486.64
2019-01-10T17:45:37.005Z,102484.08
2019-01-10T17:48:07.828Z,102488.84
2019-01-10T17:50:37.543Z,102489.67
2019-01-10T17:53:07.312Z,102492.10
2019-01-10T17:55:37.277Z,102494.21
2019-01-10T17:58:07.170Z,102493.95
2019-01-10T18:00:36.836Z,102489.08
2019-01-10T18:03:06.615Z,102484.30
2019-01-10T18:05:36.454Z,102485.62
2019-01-10T18:08:06.330Z,102493.62
2019-01-10T18:10:36.191Z,102486.02
2019-01-10T18:13:06.874Z,102483.58
2019-01-10T18:17:21.722Z,102484.63
2019-01-10T18:19:51.397Z,102486.21
2019-01-10T18:22:21.210Z,102488.65
2019-01-10T18:24:50.940Z,102483.67
2019-01-10T18:27:20.708Z,102488.94
2019-01-10T18:29:50.998Z,102490.59
2019-01-10T18:32:20.674Z,102492.89
2019-01-10T18:34:51.032Z,102486.31
2019-01-10T18:37:20.731Z,102491.08
2019-01-10T18:39:50.465Z,102489.50
2019-01-10T18:42:20.331Z,102487.86
2019-01-10T18:44:50.050Z,102483.91
2019-01-10T18:49:40.114Z,102480.02
2019-01-10T18:52:09.931Z,102480.58
2019-01-10T18:54:39.615Z,102480.08
2019-01-10T18:57:09.359Z,102485.84
2019-01-10T18:59:39.034Z,102481.89
2019-01-10T19:02:09.018Z,102476.95
2019-01-10T19:04:38.702Z,102480.91
2019-01-10T19:07:08.477Z,102489.11
2019-01-10T19:09:38.174Z,102488.48
2019-01-10T19:12:07.922Z,102484.73
2019-01-10T19:14:38.064Z,102488.19
2019-01-10T19:17:07.825Z,102490.13
2019-01-10T19:19:37.483Z,102486.54
2019-01-10T19:22:07.370Z,102488.11
2019-01-10T19:24:37.019Z,102485.55
2019-01-10T19:27:06.804Z,102482.78
2019-01-10T19:29:36.570Z,102488.67
2019-01-10T19:32:06.447Z,102478.34
2019-01-10T19:34:36.137Z,102485.32
2019-01-10T19:37:05.935Z,102483.51
2019-01-10T19:39:35.686Z,102483.61
2019-01-10T19:42:05.396Z,102483.38
2019-01-10T19:44:35.090Z,102484.63
2019-01-10T19:47:05.047Z,102484.27
2019-01-10T19:49:34.859Z,102485.66
2019-01-10T19:52:04.664Z,102480.78
2019-01-10T19:54:34.408Z,102484.23
2019-01-10T19:57:04.173Z,102480.16
2019-01-10T19:59:34.059Z,102486.73
2019-01-10T20:02:04.064Z,102489.67
2019-01-10T20:04:33.728Z,102488.05
2019-01-10T20:07:03.555Z,102488.55
2019-01-10T20:09:33.206Z,102486.67
2019-01-10T20:12:03.049Z,102485.84
2019-01-10T20:14:32.702Z,102485.84
2019-01-10T20:17:02.711Z,102486.56
2019-01-10T20:19:32.482Z,102489.30
2019-01-10T20:22:02.148Z,102492.33
2019-01-10T20:24:32.691Z,102495.39
2019-01-10T20:27:02.421Z,102496.02
2019-01-10T20:29:32.111Z,102496.58
2019-01-10T20:32:01.873Z,102499.83
2019-01-10T20:34:31.571Z,102501.88
2019-01-10T20:37:02.170Z,102493.38
2019-01-10T20:39:32.041Z,102495.19
2019-01-10T20:42:02.085Z,102497.33
2019-01-10T20:44:31.798Z,102502.27
2019-01-10T20:47:01.563Z,102503.52
2019-01-10T20:49:31.282Z,102500.83
2019-01-10T20:52:02.256Z,102501.32
2019-01-10T20:54:31.924Z,102501.58
2019-01-10T20:57:01.633Z,102495.59
2019-01-10T20:59:31.390Z,102501.38
2019-01-10T21:02:01.105Z,102497.33
2019-01-10T21:04:30.865Z,102496.16
2019-01-10T21:07:00.687Z,102492.17
2019-01-10T21:09:30.519Z,102489.57
2019-01-10T21:12:00.327Z,102490.36
2019-01-10T21:14:30.034Z,102492.66
2019-01-10T21:16:59.942Z,102486.04
2019-01-10T21:19:29.651Z,102484.03
2019-01-10T21:21:59.393Z,102487.88
2019-01-10T21:24:29.119Z,102483.70
2019-01-10T21:26:58.823Z,102492.91
2019-01-10T21:29:28.543Z,102499.80
2019-01-10T21:31:58.234Z,102494.53
2019-01-10T21:34:27.875Z,102493.41
2019-01-10T21:36:57.596Z,102491.27
2019-01-10T21:39:27.627Z,102494.92
2019-01-10T21:41:57.336Z,102497.16
2019-01-10T21:44:27.104Z,102495.91
2019-01-10T21:46:56.833Z,102494.33
2019-01-10T21:49:26.493Z,102500.73
2019-01-10T21:51:56.169Z,102497.18
2019-01-10T21:54:27.609Z,102496.06
2019-01-10T21:56:57.257Z,102495.43
2019-01-10T21:59:27.491Z,102490.16
2019-01-10T22:01:57.144Z,102493.32
2019-01-10T22:04:26.927Z,102494.44
2019-01-10T22:06:56.591Z,102496.12
2019-01-10T22:09:26.334Z,102497.44
2019-01-10T22:11:56.052Z,102496.12
2019-01-10T22:14:25.810Z,102494.20
2019-01-10T22:16:55.489Z,102495.39
2019-01-10T22:19:25.118Z,102498.59
2019-01-10T22:21:54.836Z,102501.47
2019-01-10T22:24:24.471Z,102495.77
2019-01-10T22:26:54.267Z,102495.82
2019-01-10T22:29:23.970Z,102489.00
2019-01-10T22:31:53.713Z,102487.69
2019-01-10T22:34:23.449Z,102492.13
2019-01-10T22:36:53.297Z,102499.83
2019-01-10T22:39:22.976Z,102495.14
2019-01-10T22:44:32.798Z,102485.30
2019-01-10T22:47:02.466Z,102488.52
2019-01-10T22:49:32.165Z,102487.94
2019-01-10T22:52:01.843Z,102481.06
2019-01-10T22:54:31.549Z,102477.86
2019-01-10T22:57:01.182Z,102472.73
2019-01-10T22:59:30.851Z,102471.41
2019-01-10T23:02:00.833Z,102471.71
2019-01-10T23:04:32.243Z,102475.98
2019-01-10T23:07:02.131Z,102466.64
2019-01-10T23:09:32.306Z,102463.27
2019-01-10T23:12:02.738Z,102462.14
2019-01-10T23:14:32.398Z,102466.09
2019-01-10T23:17:02.198Z,102465.33
2019-01-10T23:19:31.984Z,102464.20
2019-01-10T23:22:13.843Z,102458.45
2019-01-10T23:24:43.820Z,102449.73
2019-01-10T23:27:13.489Z,102455.38
2019-01-10T23:29:43.307Z,102444.08
2019-01-10T23:32:13.395Z,102447.67
2019-01-10T23:34:46.602Z,102443.59
2019-01-10T23:37:20.489Z,102443.72
2019-01-10T23:39:50.238Z,102447.14
2019-01-10T23:42:19.884Z,102440.18
2019-01-10T23:44:49.649Z,102439.77
2019-01-10T23:47:19.496Z,102435.45
2019-01-10T23:49:49.237Z,102440.72
2019-01-10T23:52:18.927Z,102438.91
2019-01-10T23:54:48.736Z,102438.82
2019-01-10T23:57:18.608Z,102435.89
2019-01-10T23:59:48.244Z,102435.27
